createdAt,value
2023-05-16T00:00:06.985Z,12.87
2023-05-16T00:03:42.643Z,12.89
2023-05-16T00:07:19.409Z,12.90
2023-05-16T00:10:56.958Z,12.93
2023-05-16T00:14:36.470Z,12.95
2023-05-16T00:18:15.752Z,12.97
2023-05-16T00:21:49.524Z,12.99
2023-05-16T00:25:27.815Z,13.00
2023-05-16T00:29:04.900Z,13.00
2023-05-16T00:32:42.701Z,13.02
2023-05-16T00:36:23.553Z,13.03
2023-05-16T00:39:57.853Z,13.04
2023-05-16T00:43:35.936Z,13.04
2023-05-16T00:47:13.218Z,13.04
2023-05-16T00:50:52.511Z,13.04
2023-05-16T00:54:30.405Z,13.04
2023-05-16T00:58:06.898Z,13.05
2023-05-16T01:01:47.883Z,13.06
2023-05-16T01:05:22.028Z,13.07
2023-05-16T01:08:59.938Z,13.08
2023-05-16T01:12:57.213Z,13.08
2023-05-16T01:16:27.432Z,13.06
2023-05-16T01:20:15.796Z,13.06
2023-05-16T01:24:00.721Z,13.06
2023-05-16T01:27:09.212Z,13.07
2023-05-16T01:30:45.341Z,13.08
2023-05-16T01:34:22.935Z,13.08
2023-05-16T01:38:06.656Z,13.09
2023-05-16T01:42:04.802Z,13.10
2023-05-16T01:45:24.845Z,13.12
2023-05-16T01:49:17.258Z,13.14
2023-05-16T01:52:39.012Z,13.16
2023-05-16T01:56:29.362Z,13.18
2023-05-16T01:59:47.350Z,13.20
2023-05-16T02:03:24.704Z,13.22
2023-05-16T02:07:02.200Z,13.26
2023-05-16T02:10:41.499Z,13.28
2023-05-16T02:14:17.234Z,13.30
2023-05-16T02:17:55.982Z,13.31
2023-05-16T02:21:32.526Z,13.31
2023-05-16T02:25:11.295Z,13.29
2023-05-16T02:28:49.977Z,13.27
2023-05-16T02:32:26.470Z,13.24
2023-05-16T02:36:03.954Z,13.21
2023-05-16T02:39:41.634Z,13.20
2023-05-16T02:43:18.880Z,13.19
2023-05-16T02:46:56.938Z,13.18
2023-05-16T02:50:34.653Z,13.17
2023-05-16T02:54:12.042Z,13.15
2023-05-16T02:57:50.843Z,13.14
2023-05-16T03:01:27.342Z,13.14
2023-05-16T03:05:06.569Z,13.14
2023-05-16T03:08:42.835Z,13.13
2023-05-16T03:12:20.632Z,13.14
2023-05-16T03:15:57.900Z,13.14
2023-05-16T03:19:35.702Z,13.13
2023-05-16T03:23:13.437Z,13.12
2023-05-16T03:26:51.378Z,13.12
2023-05-16T03:30:28.485Z,13.12
2023-05-16T03:34:06.986Z,13.15
2023-05-16T03:37:43.869Z,13.17
2023-05-16T03:41:22.380Z,13.18
2023-05-16T03:44:59.234Z,13.17
2023-05-16T03:48:37.080Z,13.16
2023-05-16T03:52:14.658Z,13.16
2023-05-16T03:55:52.280Z,13.16
2023-05-16T03:59:29.927Z,13.15
2023-05-16T04:03:08.607Z,13.14
2023-05-16T04:06:47.438Z,13.12
2023-05-16T04:10:23.440Z,13.12
2023-05-16T04:14:02.033Z,13.09
2023-05-16T04:17:38.916Z,13.05
2023-05-16T04:21:16.365Z,13.00
2023-05-16T04:24:54.035Z,12.94
2023-05-16T04:28:31.397Z,12.87
2023-05-16T04:32:09.842Z,12.82
2023-05-16T04:35:47.213Z,12.77
2023-05-16T04:39:24.708Z,12.72
2023-05-16T04:43:02.201Z,12.65
2023-05-16T04:46:42.175Z,12.61
2023-05-16T04:50:18.327Z,12.58
2023-05-16T04:53:56.278Z,12.57
2023-05-16T04:57:32.921Z,12.54
2023-05-16T05:01:10.937Z,12.50
2023-05-16T05:04:48.440Z,12.49
2023-05-16T05:08:26.258Z,12.44
2023-05-16T05:12:04.165Z,12.38
2023-05-16T05:15:41.679Z,12.31
2023-05-16T05:19:19.511Z,12.24
2023-05-16T05:22:56.958Z,12.16
2023-05-16T05:26:34.389Z,12.13
2023-05-16T05:30:12.260Z,12.09
2023-05-16T05:33:49.525Z,12.05
2023-05-16T05:37:27.393Z,12.02
2023-05-16T05:41:06.737Z,11.98
2023-05-16T05:44:42.985Z,11.94
2023-05-16T05:48:20.171Z,11.91
2023-05-16T05:51:58.310Z,11.85
2023-05-16T05:55:36.149Z,11.80
2023-05-16T05:59:13.962Z,11.78
2023-05-16T06:02:52.159Z,11.77
2023-05-16T06:06:29.498Z,11.76
2023-05-16T06:10:08.722Z,11.78
2023-05-16T06:13:44.268Z,11.82
2023-05-16T06:17:21.900Z,11.84
2023-05-16T06:20:59.738Z,11.84
2023-05-16T06:24:37.051Z,11.87
2023-05-16T06:28:14.758Z,11.86
2023-05-16T06:31:52.382Z,11.88
2023-05-16T06:35:30.726Z,11.89
2023-05-16T06:39:08.853Z,11.91
2023-05-16T06:42:45.852Z,11.92
2023-05-16T06:46:23.303Z,11.89
2023-05-16T06:50:01.157Z,11.83
2023-05-16T06:53:38.436Z,11.79
2023-05-16T06:57:35.092Z,11.77
2023-05-16T07:00:53.857Z,11.75
2023-05-16T07:04:40.519Z,11.70
2023-05-16T07:08:12.835Z,11.65
2023-05-16T07:11:47.408Z,11.62
2023-05-16T07:15:24.730Z,11.57
2023-05-16T07:19:02.425Z,11.55
2023-05-16T07:22:41.062Z,11.57
2023-05-16T07:26:19.220Z,11.62
2023-05-16T07:29:55.292Z,11.63
2023-05-16T07:33:35.871Z,11.65
2023-05-16T07:37:13.410Z,11.63
2023-05-16T07:40:48.341Z,11.64
2023-05-16T07:44:26.208Z,11.71
2023-05-16T07:48:03.710Z,11.78
2023-05-16T07:51:42.282Z,11.86
2023-05-16T07:55:18.897Z,11.94
2023-05-16T07:58:56.831Z,12.03
2023-05-16T08:02:34.777Z,12.08
2023-05-16T08:06:12.750Z,12.15
2023-05-16T08:09:49.566Z,12.20
2023-05-16T08:13:27.379Z,12.20
2023-05-16T08:17:05.347Z,12.20
2023-05-16T08:20:43.689Z,12.26
2023-05-16T08:24:20.756Z,12.34
2023-05-16T08:28:02.319Z,12.39
2023-05-16T08:31:36.565Z,12.50
2023-05-16T08:35:13.817Z,12.65
2023-05-16T08:38:51.217Z,12.87
2023-05-16T08:42:47.900Z,12.99
2023-05-16T08:46:27.985Z,13.05
2023-05-16T08:49:47.711Z,13.12
2023-05-16T08:53:27.948Z,13.13
2023-05-16T08:57:02.738Z,13.21
2023-05-16T09:00:37.384Z,13.26
2023-05-16T09:04:16.515Z,13.26
2023-05-16T09:07:52.855Z,13.26
2023-05-16T09:11:30.563Z,13.21
2023-05-16T09:15:10.796Z,13.18
2023-05-16T09:18:57.398Z,13.10
2023-05-16T09:22:24.036Z,13.00
2023-05-16T09:26:01.075Z,12.92
2023-05-16T09:29:42.140Z,12.87
2023-05-16T09:33:16.737Z,12.82
2023-05-16T09:36:56.968Z,12.80
2023-05-16T09:40:32.184Z,12.82
2023-05-16T09:44:09.190Z,12.92
2023-05-16T09:48:07.867Z,13.01
2023-05-16T09:51:24.370Z,13.06
2023-05-16T09:55:05.202Z,13.13
2023-05-16T09:58:41.956Z,13.22
2023-05-16T10:02:18.270Z,13.32
2023-05-16T10:05:56.346Z,13.42
2023-05-16T10:09:34.741Z,13.47
2023-05-16T10:13:12.591Z,13.49
2023-05-16T10:16:50.120Z,13.49
2023-05-16T10:20:27.118Z,13.45
2023-05-16T10:24:06.987Z,13.43
2023-05-16T10:27:42.926Z,13.43
2023-05-16T10:31:38.868Z,13.48
2023-05-16T10:34:57.307Z,13.53
2023-05-16T10:38:35.744Z,13.57
2023-05-16T10:42:14.427Z,13.61
2023-05-16T10:45:56.346Z,13.64
2023-05-16T10:49:28.080Z,13.69
2023-05-16T10:53:26.811Z,13.75
2023-05-16T10:56:43.615Z,13.81
2023-05-16T11:00:23.628Z,13.90
2023-05-16T11:04:02.533Z,13.95
2023-05-16T11:07:39.604Z,13.99
2023-05-16T11:11:41.374Z,14.03
2023-05-16T11:14:52.068Z,14.09
2023-05-16T11:18:33.145Z,14.16
2023-05-16T11:22:24.792Z,14.23
2023-05-16T11:25:46.296Z,14.30
2023-05-16T11:29:22.405Z,14.38
2023-05-16T11:32:59.523Z,14.54
2023-05-16T11:36:38.778Z,14.76
2023-05-16T11:40:17.368Z,14.93
2023-05-16T11:43:53.210Z,15.14
2023-05-16T11:47:32.206Z,15.30
2023-05-16T11:51:09.354Z,15.36
2023-05-16T11:54:46.009Z,15.37
2023-05-16T11:58:23.675Z,15.31
2023-05-16T12:02:05.740Z,15.20
2023-05-16T12:05:40.716Z,15.05
2023-05-16T12:09:18.331Z,14.96
2023-05-16T12:12:55.313Z,14.94
2023-05-16T12:16:33.159Z,14.94
2023-05-16T12:20:14.803Z,14.92
2023-05-16T12:23:47.270Z,14.85
2023-05-16T12:27:28.179Z,14.82
2023-05-16T12:31:03.387Z,14.79
2023-05-16T12:34:40.320Z,14.73
2023-05-16T12:38:20.483Z,14.65
2023-05-16T12:41:55.880Z,14.56
2023-05-16T12:45:35.432Z,14.44
2023-05-16T12:49:11.422Z,14.29
2023-05-16T12:52:53.875Z,14.17
2023-05-16T12:56:26.711Z,14.06
2023-05-16T13:00:04.247Z,13.93
2023-05-16T13:03:41.545Z,13.82
2023-05-16T13:07:19.304Z,13.72
2023-05-16T13:10:57.335Z,13.60
2023-05-16T13:14:34.346Z,13.52
2023-05-16T13:18:12.553Z,13.42
2023-05-16T13:21:50.042Z,13.31
2023-05-16T13:25:28.001Z,13.22
2023-05-16T13:29:05.796Z,13.15
2023-05-16T13:32:43.204Z,13.08
2023-05-16T13:36:20.670Z,13.05
2023-05-16T13:39:58.528Z,13.01
2023-05-16T13:43:36.415Z,13.01
2023-05-16T13:47:32.777Z,12.97
2023-05-16T13:50:53.620Z,12.94
2023-05-16T13:54:29.049Z,12.95
2023-05-16T13:58:06.935Z,12.95
2023-05-16T14:01:44.532Z,12.95
2023-05-16T14:05:22.799Z,12.95
2023-05-16T14:08:59.660Z,12.94
2023-05-16T14:12:38.140Z,12.93
2023-05-16T14:16:15.323Z,12.93
2023-05-16T14:19:53.673Z,12.89
2023-05-16T14:23:30.693Z,12.86
2023-05-16T14:27:07.998Z,12.82
2023-05-16T14:30:47.339Z,12.75
2023-05-16T14:34:23.603Z,12.71
2023-05-16T14:38:01.319Z,12.64
2023-05-16T14:41:38.835Z,12.58
2023-05-16T14:45:17.357Z,12.53
2023-05-16T14:48:53.980Z,12.47
2023-05-16T14:52:32.242Z,12.45
2023-05-16T14:56:09.580Z,12.42
2023-05-16T14:59:48.796Z,12.40
2023-05-16T15:03:25.321Z,12.37
2023-05-16T15:07:02.282Z,12.35
2023-05-16T15:10:40.269Z,12.32
2023-05-16T15:14:18.256Z,12.31
2023-05-16T15:17:56.112Z,12.30
2023-05-16T15:21:33.934Z,12.29
2023-05-16T15:25:11.298Z,12.29
2023-05-16T15:28:49.039Z,12.29
2023-05-16T15:32:26.640Z,12.31
2023-05-16T15:36:05.256Z,12.31
2023-05-16T15:39:42.627Z,12.30
2023-05-16T15:43:19.445Z,12.30
2023-05-16T15:46:57.496Z,12.29
2023-05-16T15:50:54.039Z,12.28
2023-05-16T15:54:12.516Z,12.28
2023-05-16T15:57:50.353Z,12.27
2023-05-16T16:01:27.853Z,12.26
2023-05-16T16:05:05.923Z,12.26
2023-05-16T16:08:43.469Z,12.27
2023-05-16T16:12:21.042Z,12.28
2023-05-16T16:15:58.647Z,12.28
2023-05-16T16:19:36.489Z,12.27
2023-05-16T16:23:14.009Z,12.26
2023-05-16T16:26:51.657Z,12.27
2023-05-16T16:30:28.959Z,12.28
2023-05-16T16:34:07.623Z,12.28
2023-05-16T16:37:54.796Z,12.29
2023-05-16T16:41:22.382Z,12.29
2023-05-16T16:45:00.262Z,12.28
2023-05-16T16:48:38.141Z,12.29
2023-05-16T16:52:15.893Z,12.29
2023-05-16T16:55:52.841Z,12.28
2023-05-16T16:59:31.077Z,12.27
2023-05-16T17:03:08.562Z,12.27
2023-05-16T17:06:48.405Z,12.26
2023-05-16T17:10:23.669Z,12.23
2023-05-16T17:14:01.402Z,12.23
2023-05-16T17:17:38.747Z,12.22
2023-05-16T17:21:16.697Z,12.21
2023-05-16T17:24:54.397Z,12.22
2023-05-16T17:28:32.623Z,12.23
2023-05-16T17:32:09.395Z,12.22
2023-05-16T17:35:47.791Z,12.21
2023-05-16T17:39:25.135Z,12.19
2023-05-16T17:43:02.915Z,12.17
2023-05-16T17:46:42.529Z,12.17
2023-05-16T17:50:20.024Z,12.16
2023-05-16T17:53:55.623Z,12.14
2023-05-16T17:57:34.512Z,12.15
2023-05-16T18:01:11.625Z,12.11
2023-05-16T18:04:49.015Z,12.09
2023-05-16T18:08:26.456Z,12.07
2023-05-16T18:12:04.146Z,12.05
2023-05-16T18:15:41.641Z,12.04
2023-05-16T18:19:20.196Z,12.03
2023-05-16T18:22:57.827Z,12.02
2023-05-16T18:26:34.996Z,12.03
2023-05-16T18:30:13.688Z,12.03
2023-05-16T18:33:50.363Z,12.03
2023-05-16T18:37:27.831Z,12.03
2023-05-16T18:41:06.338Z,12.03
2023-05-16T18:44:43.640Z,12.02
2023-05-16T18:48:20.922Z,12.02
2023-05-16T18:51:58.461Z,12.00
2023-05-16T18:55:36.737Z,12.00
2023-05-16T18:59:13.908Z,11.99
2023-05-16T19:02:52.330Z,11.97
2023-05-16T19:06:29.507Z,11.96
2023-05-16T19:10:12.562Z,11.93
2023-05-16T19:13:45.734Z,11.91
2023-05-16T19:17:22.235Z,11.91
2023-05-16T19:20:59.674Z,11.89
2023-05-16T19:24:37.396Z,11.88
2023-05-16T19:28:16.701Z,11.85
2023-05-16T19:31:53.101Z,11.83
2023-05-16T19:35:30.676Z,11.81
2023-05-16T19:39:08.322Z,11.78
2023-05-16T19:42:46.033Z,11.76
2023-05-16T19:46:23.868Z,11.73
2023-05-16T19:50:02.553Z,11.69
2023-05-16T19:53:38.755Z,11.67
2023-05-16T19:57:16.620Z,11.63
2023-05-16T20:00:54.899Z,11.61
2023-05-16T20:04:32.184Z,11.58
2023-05-16T20:08:09.957Z,11.57
2023-05-16T20:11:47.889Z,11.57
2023-05-16T20:15:25.905Z,11.57
2023-05-16T20:19:02.575Z,11.56
2023-05-16T20:22:41.772Z,11.54
2023-05-16T20:26:17.929Z,11.53
2023-05-16T20:29:57.293Z,11.52
2023-05-16T20:33:33.357Z,11.53
2023-05-16T20:37:10.830Z,11.51
2023-05-16T20:40:48.317Z,11.49
2023-05-16T20:44:26.232Z,11.48
2023-05-16T20:48:04.301Z,11.48
2023-05-16T20:51:41.553Z,11.45
2023-05-16T20:55:18.965Z,11.44
2023-05-16T20:58:57.020Z,11.43
2023-05-16T21:02:34.793Z,11.42
2023-05-16T21:06:12.230Z,11.40
2023-05-16T21:09:49.958Z,11.38
2023-05-16T21:13:29.212Z,11.37
2023-05-16T21:17:04.986Z,11.35
2023-05-16T21:20:43.232Z,11.33
2023-05-16T21:24:21.319Z,11.30
2023-05-16T21:27:58.441Z,11.29
2023-05-16T21:31:35.773Z,11.29
2023-05-16T21:35:13.761Z,11.27
2023-05-16T21:38:51.491Z,11.27
2023-05-16T21:42:29.016Z,11.25
2023-05-16T21:46:07.197Z,11.23
2023-05-16T21:49:44.587Z,11.21
2023-05-16T21:53:24.210Z,11.19
2023-05-16T21:56:59.691Z,11.17
2023-05-16T22:01:13.183Z,11.15
2023-05-16T22:04:15.440Z,11.12
2023-05-16T22:07:54.147Z,11.10
2023-05-16T22:11:30.919Z,11.07
2023-05-16T22:15:10.928Z,11.05
2023-05-16T22:18:45.645Z,11.03
2023-05-16T22:22:23.704Z,11.01
2023-05-16T22:26:21.151Z,11.00
2023-05-16T22:29:38.808Z,10.99
2023-05-16T22:33:16.744Z,10.98
2023-05-16T22:36:54.293Z,10.99
2023-05-16T22:40:32.339Z,10.99
2023-05-16T22:44:09.581Z,10.99
2023-05-16T22:47:47.036Z,10.98
2023-05-16T22:51:24.930Z,10.97
2023-05-16T22:55:02.718Z,10.97
2023-05-16T22:58:39.999Z,10.96
2023-05-16T23:02:18.119Z,10.95
2023-05-16T23:05:56.010Z,10.94
2023-05-16T23:09:33.220Z,10.93
2023-05-16T23:13:10.517Z,10.91
2023-05-16T23:16:48.612Z,10.90
2023-05-16T23:20:26.190Z,10.90
2023-05-16T23:24:04.001Z,10.89
2023-05-16T23:27:41.795Z,10.89
2023-05-16T23:31:19.483Z,10.89
2023-05-16T23:34:57.243Z,10.89
2023-05-16T23:38:34.632Z,10.91
2023-05-16T23:42:12.504Z,10.92
2023-05-16T23:45:50.067Z,10.94
2023-05-16T23:49:27.622Z,10.95
2023-05-16T23:53:05.090Z,10.97
2023-05-16T23:56:43.148Z,10.99
